createdAt,value
2023-04-20T00:04:18.580Z,7.55
2023-04-20T00:09:21.284Z,7.64
2023-04-20T00:14:24.048Z,7.37
2023-04-20T00:19:32.979Z,7.49
2023-04-20T00:24:35.888Z,7.55
2023-04-20T00:29:38.768Z,7.26
2023-04-20T00:34:42.915Z,7.50
2023-04-20T00:39:45.648Z,7.55
2023-04-20T00:44:48.412Z,7.53
2023-04-20T00:49:53.284Z,7.70
2023-04-20T00:54:56.655Z,7.72
2023-04-20T00:59:59.706Z,7.66
2023-04-20T01:05:03.993Z,7.68
2023-04-20T01:10:08.217Z,7.73
2023-04-20T01:15:11.274Z,7.71
2023-04-20T01:20:16.942Z,7.70
2023-04-20T01:25:21.455Z,7.69
2023-04-20T01:30:24.262Z,7.67
2023-04-20T01:35:27.137Z,7.57
2023-04-20T01:40:31.259Z,7.66
2023-04-20T01:45:35.406Z,7.50
2023-04-20T01:50:38.176Z,7.55
2023-04-20T01:55:42.301Z,7.45
2023-04-20T02:00:45.502Z,7.57
2023-04-20T02:05:48.337Z,7.52
2023-04-20T02:10:52.454Z,7.49
2023-04-20T02:15:55.502Z,7.24
2023-04-20T02:20:58.599Z,7.12
2023-04-20T02:26:02.704Z,7.19
2023-04-20T02:31:05.618Z,6.83
2023-04-20T02:36:08.940Z,6.95
2023-04-20T02:41:12.991Z,6.86
2023-04-20T02:46:16.307Z,6.85
2023-04-20T02:51:19.576Z,6.93
2023-04-20T02:56:24.013Z,6.99
2023-04-20T03:01:30.255Z,6.94
2023-04-20T03:06:40.511Z,6.98
2023-04-20T03:11:48.479Z,6.96
2023-04-20T03:17:04.418Z,6.64
2023-04-20T03:22:07.747Z,6.70
2023-04-20T03:27:13.277Z,6.53
2023-04-20T03:32:27.867Z,6.48
2023-04-20T03:37:30.721Z,6.55
2023-04-20T03:42:34.888Z,6.59
2023-04-20T03:47:37.725Z,6.36
2023-04-20T03:52:41.276Z,6.33
2023-04-20T03:57:46.492Z,6.41
2023-04-20T04:02:50.088Z,6.29
2023-04-20T04:07:59.973Z,6.45
2023-04-20T04:13:04.394Z,6.18
2023-04-20T04:18:07.745Z,6.27
2023-04-20T04:23:11.947Z,6.37
2023-04-20T04:28:21.667Z,6.40
2023-04-20T04:33:47.414Z,6.32
2023-04-20T04:39:01.413Z,6.27
2023-04-20T04:44:06.067Z,6.53
2023-04-20T04:49:10.518Z,6.47
2023-04-20T04:54:13.235Z,6.56
2023-04-20T04:59:17.473Z,6.55
2023-04-20T05:04:21.241Z,6.41
2023-04-20T05:09:24.015Z,6.29
2023-04-20T05:14:28.070Z,6.22
2023-04-20T05:19:30.744Z,6.27
2023-04-20T05:24:33.581Z,6.26
2023-04-20T05:29:37.866Z,6.29
2023-04-20T05:34:40.718Z,6.36
2023-04-20T05:39:43.469Z,6.29
2023-04-20T05:44:47.544Z,6.35
2023-04-20T05:49:50.285Z,6.43
2023-04-20T05:54:53.784Z,6.28
2023-04-20T05:59:57.979Z,6.47
2023-04-20T06:05:01.658Z,6.51
2023-04-20T06:10:05.414Z,6.55
2023-04-20T06:15:10.932Z,6.48
2023-04-20T06:20:13.895Z,6.86
2023-04-20T06:25:16.629Z,6.88
2023-04-20T06:30:20.878Z,7.04
2023-04-20T06:35:23.796Z,7.25
2023-04-20T06:40:27.997Z,6.97
2023-04-20T06:45:33.993Z,6.88
2023-04-20T06:50:37.032Z,7.32
2023-04-20T06:55:39.715Z,6.88
2023-04-20T07:00:44.152Z,6.59
2023-04-20T07:05:47.009Z,6.66
2023-04-20T07:10:49.808Z,6.72
2023-04-20T07:15:54.019Z,6.72
2023-04-20T07:20:56.882Z,6.76
2023-04-20T07:25:59.582Z,6.78
2023-04-20T07:31:03.661Z,6.92
2023-04-20T07:36:07.096Z,6.96
2023-04-20T07:41:10.615Z,7.01
2023-04-20T07:46:22.323Z,7.12
2023-04-20T07:51:25.201Z,7.26
2023-04-20T07:56:27.939Z,7.17
2023-04-20T08:01:32.158Z,7.01
2023-04-20T08:06:34.910Z,6.93
2023-04-20T08:11:37.674Z,6.94
2023-04-20T08:16:41.776Z,6.85
2023-04-20T08:21:44.978Z,6.91
2023-04-20T08:26:47.784Z,7.15
2023-04-20T08:31:52.284Z,7.26
2023-04-20T08:36:55.410Z,7.22
2023-04-20T08:41:58.275Z,7.63
2023-04-20T08:47:02.609Z,7.81
2023-04-20T08:52:05.829Z,8.04
2023-04-20T08:57:08.612Z,8.11
2023-04-20T09:02:13.405Z,7.94
2023-04-20T09:07:20.193Z,7.88
2023-04-20T09:12:24.556Z,7.86
2023-04-20T09:17:37.056Z,7.80
2023-04-20T09:22:40.026Z,8.61
2023-04-20T09:27:42.844Z,8.38
2023-04-20T09:32:48.271Z,8.57
2023-04-20T09:37:51.511Z,8.45
2023-04-20T09:42:55.125Z,8.25
2023-04-20T09:47:59.311Z,8.43
2023-04-20T09:53:02.685Z,8.42
2023-04-20T09:58:06.210Z,8.82
2023-04-20T10:03:11.200Z,8.92
2023-04-20T10:08:14.073Z,8.53
2023-04-20T10:13:19.644Z,8.52
2023-04-20T10:18:25.175Z,8.65
2023-04-20T10:23:28.148Z,9.07
2023-04-20T10:28:40.755Z,9.38
2023-04-20T10:33:52.403Z,9.27
2023-04-20T10:38:55.805Z,9.12
2023-04-20T10:44:07.995Z,9.13
2023-04-20T10:49:12.064Z,9.60
2023-04-20T10:54:16.910Z,9.92
2023-04-20T10:59:23.314Z,10.05
2023-04-20T11:04:33.913Z,10.74
2023-04-20T11:09:38.315Z,10.79
2023-04-20T11:14:53.581Z,11.12
2023-04-20T11:20:05.768Z,11.39
2023-04-20T11:25:10.076Z,11.51
2023-04-20T11:30:13.158Z,12.05
2023-04-20T11:35:17.279Z,11.67
2023-04-20T11:40:20.005Z,12.28
2023-04-20T11:45:23.314Z,12.58
2023-04-20T11:50:27.469Z,12.52
2023-04-20T11:55:30.232Z,11.89
2023-04-20T12:00:33.032Z,11.63
2023-04-20T12:05:37.203Z,11.69
2023-04-20T12:10:40.255Z,12.24
2023-04-20T12:15:43.110Z,12.52
2023-04-20T12:20:47.325Z,12.13
2023-04-20T12:25:50.358Z,11.84
2023-04-20T12:30:53.132Z,12.26
2023-04-20T12:35:57.234Z,12.31
2023-04-20T12:41:00.484Z,12.58
2023-04-20T12:46:03.172Z,11.81
2023-04-20T12:51:07.347Z,11.38
2023-04-20T12:56:10.090Z,12.00
2023-04-20T13:01:12.860Z,12.62
2023-04-20T13:06:16.972Z,12.35
2023-04-20T13:11:19.702Z,12.13
2023-04-20T13:16:22.469Z,12.23
2023-04-20T13:21:26.598Z,12.13
2023-04-20T13:26:29.335Z,12.61
2023-04-20T13:31:32.260Z,12.19
2023-04-20T13:36:36.420Z,12.49
2023-04-20T13:41:39.268Z,12.24
2023-04-20T13:46:42.110Z,12.17
2023-04-20T13:51:46.284Z,12.39
2023-04-20T13:56:48.948Z,11.63
2023-04-20T14:01:51.704Z,11.99
2023-04-20T14:06:55.788Z,11.86
2023-04-20T14:11:58.506Z,11.94
2023-04-20T14:17:01.811Z,11.79
2023-04-20T14:22:05.944Z,11.91
2023-04-20T14:27:08.636Z,12.04
2023-04-20T14:32:11.446Z,12.18
2023-04-20T14:37:15.634Z,12.16
2023-04-20T14:42:18.339Z,12.19
2023-04-20T14:47:21.218Z,11.99
2023-04-20T14:52:25.375Z,11.60
2023-04-20T14:57:28.100Z,11.59
2023-04-20T15:02:31.070Z,11.38
2023-04-20T15:07:35.397Z,11.36
2023-04-20T15:12:38.142Z,11.34
2023-04-20T15:17:40.904Z,11.26
2023-04-20T15:22:44.991Z,11.44
2023-04-20T15:27:47.801Z,11.50
2023-04-20T15:32:50.555Z,11.48
2023-04-20T15:37:54.631Z,11.58
2023-04-20T15:42:57.346Z,11.47
2023-04-20T15:48:00.889Z,11.16
2023-04-20T15:53:05.169Z,10.96
2023-04-20T15:58:07.895Z,11.00
2023-04-20T16:03:10.854Z,10.68
2023-04-20T16:08:15.210Z,10.78
2023-04-20T16:13:17.997Z,10.82
2023-04-20T16:18:20.792Z,10.68
2023-04-20T16:23:24.932Z,10.58
2023-04-20T16:28:27.669Z,10.42
2023-04-20T16:33:32.050Z,10.53
2023-04-20T16:38:36.118Z,10.35
2023-04-20T16:43:38.952Z,10.10
2023-04-20T16:48:41.744Z,10.16
2023-04-20T16:53:46.406Z,10.13
2023-04-20T16:58:49.154Z,10.12
2023-04-20T17:03:52.148Z,10.03
2023-04-20T17:09:01.242Z,10.19
2023-04-20T17:14:04.183Z,10.16
2023-04-20T17:19:06.941Z,9.95
2023-04-20T17:24:11.024Z,9.78
2023-04-20T17:29:13.814Z,9.56
2023-04-20T17:34:16.778Z,9.43
2023-04-20T17:39:21.579Z,9.43
2023-04-20T17:44:24.374Z,9.49
2023-04-20T17:49:27.108Z,9.36
2023-04-20T17:54:33.807Z,9.32
2023-04-20T17:59:36.649Z,9.39
2023-04-20T18:04:39.537Z,9.33
2023-04-20T18:09:43.798Z,9.35
2023-04-20T18:14:46.743Z,9.49
2023-04-20T18:19:49.485Z,9.40
2023-04-20T18:24:54.131Z,9.31
2023-04-20T18:29:59.616Z,9.37
2023-04-20T18:35:02.631Z,9.31
2023-04-20T18:40:08.388Z,9.21
2023-04-20T18:45:13.005Z,9.13
2023-04-20T18:50:15.936Z,9.16
2023-04-20T18:55:20.006Z,9.05
2023-04-20T19:00:23.117Z,9.06
2023-04-20T19:05:26.131Z,9.01
2023-04-20T19:10:31.900Z,9.03
2023-04-20T19:15:34.974Z,9.00
2023-04-20T19:20:37.782Z,8.91
2023-04-20T19:25:42.012Z,8.92
2023-04-20T19:30:44.855Z,8.73
2023-04-20T19:35:50.757Z,8.74
2023-04-20T19:40:55.185Z,8.81
2023-04-20T19:45:58.121Z,8.70
2023-04-20T19:51:03.163Z,8.70
2023-04-20T19:56:07.310Z,8.70
2023-04-20T20:01:10.138Z,8.64
2023-04-20T20:06:12.844Z,8.63
2023-04-20T20:11:16.927Z,8.51
2023-04-20T20:16:19.681Z,8.52
2023-04-20T20:21:22.554Z,8.43
2023-04-20T20:26:26.878Z,8.38
2023-04-20T20:31:29.608Z,8.37
2023-04-20T20:36:33.441Z,8.26
2023-04-20T20:41:37.514Z,8.24
2023-04-20T20:46:40.954Z,8.22
2023-04-20T20:51:43.837Z,8.16
2023-04-20T20:56:47.955Z,8.24
2023-04-20T21:01:50.742Z,8.17
2023-04-20T21:06:53.640Z,8.28
2023-04-20T21:11:57.722Z,8.34
2023-04-20T21:17:00.636Z,8.41
2023-04-20T21:22:03.660Z,8.39
2023-04-20T21:27:07.730Z,8.39
2023-04-20T21:32:10.913Z,8.44
2023-04-20T21:37:13.701Z,8.51
2023-04-20T21:42:17.900Z,8.53
2023-04-20T21:47:20.674Z,8.50
2023-04-20T21:52:23.971Z,8.58
2023-04-20T21:57:28.045Z,8.51
2023-04-20T22:02:30.934Z,8.52
2023-04-20T22:07:33.879Z,8.53
2023-04-20T22:12:40.539Z,8.59
2023-04-20T22:17:45.287Z,8.53
2023-04-20T22:22:48.112Z,8.55
2023-04-20T22:27:52.169Z,8.53
2023-04-20T22:32:54.913Z,8.55
2023-04-20T22:37:57.755Z,8.50
2023-04-20T22:43:01.978Z,8.66
2023-04-20T22:48:05.025Z,8.55
2023-04-20T22:53:07.799Z,8.50
2023-04-20T22:58:11.846Z,8.56
2023-04-20T23:03:14.770Z,8.63
2023-04-20T23:08:20.529Z,8.55
2023-04-20T23:13:26.042Z,8.59
2023-04-20T23:18:28.766Z,8.61
2023-04-20T23:23:31.516Z,8.64
2023-04-20T23:28:35.649Z,8.62
2023-04-20T23:33:38.368Z,8.68
2023-04-20T23:38:41.190Z,8.72
2023-04-20T23:43:45.238Z,8.76
2023-04-20T23:48:49.192Z,8.83
2023-04-20T23:53:51.950Z,8.85
2023-04-20T23:58:56.032Z,8.85
